CheckWX is a tool to help pilots better visualize weather data.  It is not intended as a substitute for an official pre-flight weather briefing.

07:22:56 UTC

KERI METAR
Erie International / Tom Ridge Field Airport
Erie, Pennsylvania, USA
Current

32 mins ago

KERI 210651Z AUTO 33005KT 10SM CLR 08/04 A3010 RMK AO2 SLP196 T00830044 TSNO
Observed
May-21 @ 06:51 UTC
Wind
  • 330° at 5 KTS
Visibility
10 SM
Flight Rules
VFR
Cloud Levels
  • Clear skies
Temperature
C / 46°F
Dewpoint
C / 39°F
Humidity
76%
Altimeter
30.1" Hg
Pressure
1019.32 hPa
Previous

2 hours ago

KERI 210551Z AUTO 32006KT 10SM CLR 08/04 A3010 RMK AO2 SLP194 T00830044 10111 20083 53003 TSNO
Observed
May-21 @ 05:51 UTC
Wind
  • 320° at 6 KTS
Visibility
10 SM
Flight Rules
VFR
Cloud Levels
  • Clear skies
Temperature
C / 46°F
Dewpoint
C / 39°F
Humidity
76%
Altimeter
30.1" Hg
Pressure
1019.32 hPa
Previous

3 hours ago

KERI 210451Z AUTO 32008KT 10SM SCT046 09/04 A3009 RMK AO2 SLP190 T00890044 402000089 TSNO
Observed
May-21 @ 04:51 UTC
Wind
  • 320° at 8 KTS
Visibility
10 SM
Flight Rules
VFR
Cloud Levels
  • Scattered at 4,600' AGL
Temperature
C / 48°F
Dewpoint
C / 39°F
Humidity
71%
Altimeter
30.09" Hg
Pressure
1018.92 hPa